createdAt,value
2023-05-23T00:00:14.557Z,100.00
2023-05-23T00:02:41.890Z,100.00
2023-05-23T00:05:09.386Z,100.00
2023-05-23T00:07:36.684Z,100.00
2023-05-23T00:10:05.018Z,100.00
2023-05-23T00:12:33.932Z,100.00
2023-05-23T00:15:04.626Z,100.00
2023-05-23T00:17:31.960Z,100.00
2023-05-23T00:19:59.266Z,100.00
2023-05-23T00:22:26.617Z,100.00
2023-05-23T00:24:53.569Z,100.00
2023-05-23T00:27:20.837Z,100.00
2023-05-23T00:29:51.160Z,100.00
2023-05-23T00:32:19.065Z,100.00
2023-05-23T00:34:46.289Z,100.00
2023-05-23T00:37:13.864Z,100.00
2023-05-23T00:39:41.330Z,100.00
2023-05-23T00:42:08.791Z,100.00
2023-05-23T00:44:35.845Z,100.00
2023-05-23T00:47:02.993Z,100.00
2023-05-23T00:49:31.344Z,100.00
2023-05-23T00:51:58.954Z,100.00
2023-05-23T00:54:29.679Z,100.00
2023-05-23T00:56:56.900Z,100.00
2023-05-23T00:59:26.257Z,100.00
2023-05-23T01:01:56.151Z,100.00
2023-05-23T01:04:27.172Z,100.00
2023-05-23T01:06:58.258Z,100.00
2023-05-23T01:12:31.276Z,100.00
2023-05-23T01:15:09.194Z,100.00
2023-05-23T01:17:53.345Z,100.00
2023-05-23T01:20:24.488Z,100.00
2023-05-23T01:23:03.961Z,100.00
2023-05-23T01:25:47.570Z,100.00
2023-05-23T01:28:21.887Z,100.00
2023-05-23T01:30:54.292Z,100.00
2023-05-23T01:33:22.850Z,100.00
2023-05-23T01:36:10.069Z,100.00
2023-05-23T01:38:37.940Z,100.00
2023-05-23T01:41:04.872Z,100.00
2023-05-23T01:43:32.008Z,100.00
2023-05-23T01:46:00.720Z,100.00
2023-05-23T01:48:29.287Z,100.00
2023-05-23T01:50:57.487Z,100.00
2023-05-23T01:53:25.907Z,100.00
2023-05-23T01:55:53.200Z,100.00
2023-05-23T01:58:20.628Z,100.00
2023-05-23T02:00:47.508Z,100.00
2023-05-23T02:03:14.752Z,100.00
2023-05-23T02:05:41.792Z,100.00
2023-05-23T02:08:08.924Z,100.00
2023-05-23T02:10:35.868Z,100.00
2023-05-23T02:13:03.058Z,100.00
2023-05-23T02:15:30.242Z,100.00
2023-05-23T02:17:57.267Z,100.00
2023-05-23T02:20:24.171Z,100.00
2023-05-23T02:22:51.097Z,100.00
2023-05-23T02:25:18.069Z,100.00
2023-05-23T02:27:44.961Z,100.00
2023-05-23T02:30:12.348Z,100.00
2023-05-23T02:32:39.133Z,100.00
2023-05-23T02:35:06.512Z,100.00
2023-05-23T02:37:33.411Z,100.00
2023-05-23T02:40:00.446Z,100.00
2023-05-23T02:42:30.641Z,100.00
2023-05-23T02:44:57.804Z,100.00
2023-05-23T02:47:25.013Z,100.00
2023-05-23T02:49:52.007Z,100.00
2023-05-23T02:52:19.832Z,100.00
2023-05-23T02:54:46.535Z,100.00
2023-05-23T02:57:13.537Z,100.00
2023-05-23T02:59:41.314Z,100.00
2023-05-23T03:02:08.257Z,100.00
2023-05-23T03:04:35.402Z,100.00
2023-05-23T03:07:05.422Z,100.00
2023-05-23T03:09:34.434Z,100.00
2023-05-23T03:12:01.505Z,100.00
2023-05-23T03:14:28.294Z,100.00
2023-05-23T03:16:55.236Z,100.00
2023-05-23T03:19:22.163Z,100.00
2023-05-23T03:21:52.467Z,100.00
2023-05-23T03:24:19.644Z,100.00
2023-05-23T03:26:46.537Z,100.00
2023-05-23T03:29:13.581Z,100.00
2023-05-23T03:31:40.378Z,100.00
2023-05-23T03:34:07.400Z,100.00
2023-05-23T03:36:39.478Z,100.00
2023-05-23T03:39:06.911Z,100.00
2023-05-23T03:41:36.151Z,100.00
2023-05-23T03:44:05.894Z,100.00
2023-05-23T03:46:35.458Z,100.00
2023-05-23T03:49:02.794Z,100.00
2023-05-23T03:51:31.006Z,100.00
2023-05-23T03:53:58.057Z,100.00
2023-05-23T03:56:28.134Z,100.00
2023-05-23T03:58:55.076Z,100.00
2023-05-23T04:01:22.323Z,100.00
2023-05-23T04:03:53.327Z,100.00
2023-05-23T04:06:23.039Z,100.00
2023-05-23T04:08:53.614Z,100.00
2023-05-23T04:11:22.268Z,100.00
2023-05-23T04:13:49.880Z,100.00
2023-05-23T04:16:17.472Z,100.00
2023-05-23T04:18:53.108Z,100.00
2023-05-23T04:21:20.337Z,100.00
2023-05-23T04:23:47.506Z,100.00
2023-05-23T04:26:14.705Z,100.00
2023-05-23T04:28:44.108Z,100.00
2023-05-23T04:31:11.850Z,100.00
2023-05-23T04:33:38.738Z,100.00
2023-05-23T04:36:09.588Z,100.00
2023-05-23T04:38:38.752Z,100.00
2023-05-23T04:41:08.054Z,100.00
2023-05-23T04:43:35.246Z,100.00
2023-05-23T04:46:02.440Z,100.00
2023-05-23T04:48:35.272Z,100.00
2023-05-23T04:51:06.291Z,100.00
2023-05-23T04:53:33.859Z,100.00
2023-05-23T04:56:04.155Z,100.00
2023-05-23T04:58:32.400Z,100.00
2023-05-23T05:00:59.477Z,100.00
2023-05-23T05:03:27.126Z,100.00
2023-05-23T05:05:54.361Z,100.00
2023-05-23T05:08:21.332Z,100.00
2023-05-23T05:10:48.475Z,100.00
2023-05-23T05:13:15.998Z,100.00
2023-05-23T05:15:43.100Z,100.00
2023-05-23T05:18:10.294Z,100.00
2023-05-23T05:20:40.733Z,100.00
2023-05-23T05:23:09.855Z,100.00
2023-05-23T05:25:38.604Z,100.00
2023-05-23T05:28:08.402Z,100.00
2023-05-23T05:30:35.750Z,100.00
2023-05-23T05:33:04.771Z,100.00
2023-05-23T05:35:35.901Z,100.00
2023-05-23T05:38:06.177Z,100.00
2023-05-23T05:40:33.372Z,100.00
2023-05-23T05:43:09.469Z,100.00
2023-05-23T05:45:37.148Z,100.00
2023-05-23T05:48:04.529Z,100.00
2023-05-23T05:50:31.418Z,100.00
2023-05-23T05:52:58.844Z,100.00
2023-05-23T05:55:26.617Z,100.00
2023-05-23T05:57:53.440Z,100.00
2023-05-23T06:00:20.909Z,100.00
2023-05-23T06:02:48.043Z,100.00
2023-05-23T06:05:17.215Z,100.00
2023-05-23T06:07:44.407Z,100.00
2023-05-23T06:10:14.685Z,100.00
2023-05-23T06:12:41.521Z,100.00
2023-05-23T06:15:10.809Z,100.00
2023-05-23T06:17:38.227Z,99.84
2023-05-23T06:20:06.124Z,98.52
2023-05-23T06:22:33.159Z,91.68
2023-05-23T06:25:00.249Z,90.13
2023-05-23T06:27:27.288Z,90.72
2023-05-23T06:29:54.132Z,88.25
2023-05-23T06:32:21.097Z,87.10
2023-05-23T06:34:48.095Z,87.98
2023-05-23T06:37:15.350Z,83.32
2023-05-23T06:39:42.407Z,83.96
2023-05-23T06:42:11.386Z,82.57
2023-05-23T06:44:38.830Z,82.56
2023-05-23T06:47:05.976Z,81.83
2023-05-23T06:49:33.068Z,81.82
2023-05-23T06:52:00.176Z,78.85
2023-05-23T06:54:27.132Z,79.36
2023-05-23T06:56:53.910Z,81.13
2023-05-23T06:59:20.974Z,80.96
2023-05-23T07:01:48.006Z,79.26
2023-05-23T07:04:15.725Z,76.49
2023-05-23T07:06:42.488Z,74.67
2023-05-23T07:09:09.408Z,74.80
2023-05-23T07:11:36.701Z,73.45
2023-05-23T07:14:03.718Z,68.19
2023-05-23T07:16:30.694Z,67.79
2023-05-23T07:18:57.654Z,68.75
2023-05-23T07:21:27.487Z,68.37
2023-05-23T07:23:54.578Z,69.67
2023-05-23T07:26:21.361Z,68.19
2023-05-23T07:28:48.217Z,68.91
2023-05-23T07:31:15.067Z,68.32
2023-05-23T07:33:41.888Z,66.89
2023-05-23T07:36:09.056Z,65.48
2023-05-23T07:38:44.834Z,65.55
2023-05-23T07:41:13.909Z,62.84
2023-05-23T07:43:41.213Z,63.69
2023-05-23T07:46:08.200Z,65.12
2023-05-23T07:48:36.043Z,65.00
2023-05-23T07:51:05.018Z,62.70
2023-05-23T07:53:31.891Z,62.22
2023-05-23T07:55:58.836Z,59.30
2023-05-23T07:58:26.033Z,61.30
2023-05-23T08:00:53.373Z,61.11
2023-05-23T08:03:21.633Z,59.69
2023-05-23T08:05:48.479Z,61.21
2023-05-23T08:08:15.320Z,61.85
2023-05-23T08:10:42.809Z,60.83
2023-05-23T08:13:10.576Z,59.90
2023-05-23T08:15:37.650Z,59.36
2023-05-23T08:18:05.393Z,58.96
2023-05-23T08:20:32.540Z,57.91
2023-05-23T08:23:00.459Z,58.41
2023-05-23T08:25:36.259Z,58.26
2023-05-23T08:28:03.021Z,57.23
2023-05-23T08:30:30.202Z,55.70
2023-05-23T08:32:58.261Z,56.80
2023-05-23T08:35:25.776Z,56.72
2023-05-23T08:37:58.445Z,58.34
2023-05-23T08:40:29.499Z,59.69
2023-05-23T08:42:57.252Z,57.53
2023-05-23T08:45:25.038Z,58.08
2023-05-23T08:47:56.647Z,55.87
2023-05-23T08:50:27.293Z,56.79
2023-05-23T08:53:00.712Z,58.97
2023-05-23T08:55:32.599Z,56.20
2023-05-23T08:58:00.923Z,56.01
2023-05-23T09:00:39.025Z,59.17
2023-05-23T09:03:06.987Z,54.47
2023-05-23T09:05:34.096Z,54.21
2023-05-23T09:08:04.230Z,52.75
2023-05-23T09:10:31.523Z,53.92
2023-05-23T09:12:58.681Z,57.71
2023-05-23T09:15:27.565Z,58.45
2023-05-23T09:17:59.969Z,57.00
2023-05-23T09:20:27.888Z,55.26
2023-05-23T09:22:59.137Z,53.40
2023-05-23T09:25:29.642Z,50.34
2023-05-23T09:28:00.709Z,48.83
2023-05-23T09:30:28.359Z,50.64
2023-05-23T09:33:05.386Z,51.23
2023-05-23T09:35:33.378Z,53.14
2023-05-23T09:38:00.057Z,52.90
2023-05-23T09:40:32.269Z,55.49
2023-05-23T09:43:05.001Z,54.73
2023-05-23T09:45:36.004Z,57.29
2023-05-23T09:48:03.014Z,55.35
2023-05-23T09:50:34.498Z,53.28
2023-05-23T09:53:02.280Z,51.35
2023-05-23T09:55:32.367Z,50.40
2023-05-23T09:58:04.262Z,51.53
2023-05-23T10:00:32.302Z,53.24
2023-05-23T10:03:34.187Z,50.15
2023-05-23T10:06:06.909Z,50.04
2023-05-23T10:08:43.741Z,51.02
2023-05-23T10:11:15.243Z,49.08
2023-05-23T10:13:45.625Z,49.38
2023-05-23T10:16:23.512Z,48.80
2023-05-23T10:18:58.381Z,48.48
2023-05-23T10:21:47.585Z,49.53
2023-05-23T10:24:15.069Z,47.83
2023-05-23T10:26:44.319Z,47.67
2023-05-23T10:29:11.411Z,50.58
2023-05-23T10:31:43.956Z,51.82
2023-05-23T10:34:32.506Z,53.00
2023-05-23T10:37:17.673Z,50.68
2023-05-23T10:40:11.539Z,50.14
2023-05-23T10:43:08.272Z,51.13
2023-05-23T10:45:44.102Z,51.20
2023-05-23T10:48:37.776Z,53.28
2023-05-23T10:51:15.156Z,49.80
2023-05-23T10:53:47.218Z,49.95
2023-05-23T10:56:25.120Z,48.40
2023-05-23T10:58:57.340Z,48.55
2023-05-23T11:01:25.532Z,47.94
2023-05-23T11:03:59.842Z,47.29
2023-05-23T11:06:45.773Z,48.67
2023-05-23T11:09:22.039Z,48.62
2023-05-23T11:11:55.101Z,47.70
2023-05-23T11:14:56.155Z,48.48
2023-05-23T11:17:55.964Z,48.40
2023-05-23T11:20:27.720Z,50.31
2023-05-23T11:23:08.033Z,49.28
2023-05-23T11:25:54.228Z,50.69
2023-05-23T11:28:21.603Z,50.91
2023-05-23T11:30:53.911Z,50.78
2023-05-23T11:33:22.386Z,48.27
2023-05-23T11:35:52.004Z,50.33
2023-05-23T11:38:19.789Z,48.71
2023-05-23T11:40:55.832Z,46.63
2023-05-23T11:43:26.463Z,44.64
2023-05-23T11:45:53.420Z,47.31
2023-05-23T11:48:20.545Z,45.83
2023-05-23T11:50:48.780Z,46.69
2023-05-23T11:53:19.062Z,45.31
2023-05-23T11:55:57.747Z,44.48
2023-05-23T11:58:46.842Z,42.82
2023-05-23T12:01:14.420Z,43.90
2023-05-23T12:03:52.643Z,42.91
2023-05-23T12:06:44.221Z,43.77
2023-05-23T12:09:13.009Z,45.37
2023-05-23T12:11:41.535Z,45.62
2023-05-23T12:14:41.868Z,43.50
2023-05-23T12:17:00.840Z,43.44
2023-05-23T12:19:31.341Z,43.34
2023-05-23T12:22:15.500Z,42.68
2023-05-23T12:24:48.821Z,44.42
2023-05-23T12:27:19.334Z,46.97
2023-05-23T12:29:57.397Z,44.38
2023-05-23T12:32:25.921Z,47.17
2023-05-23T12:34:53.761Z,44.79
2023-05-23T12:37:22.339Z,44.01
2023-05-23T12:39:53.096Z,44.55
2023-05-23T12:42:33.425Z,49.69
2023-05-23T12:45:04.983Z,51.82
2023-05-23T12:47:41.391Z,52.11
2023-05-23T12:50:09.838Z,52.48
2023-05-23T12:52:43.355Z,53.48
2023-05-23T12:55:14.395Z,54.15
2023-05-23T12:57:43.864Z,54.40
2023-05-23T13:00:12.169Z,56.34
2023-05-23T13:02:40.806Z,56.89
2023-05-23T13:05:08.896Z,58.61
2023-05-23T13:07:38.378Z,59.02
2023-05-23T13:10:09.863Z,58.83
2023-05-23T13:12:37.048Z,58.44
2023-05-23T13:15:04.725Z,58.71
2023-05-23T13:17:32.160Z,58.82
2023-05-23T13:19:59.030Z,58.78
2023-05-23T13:22:26.364Z,59.20
2023-05-23T13:24:53.181Z,58.71
2023-05-23T13:27:19.982Z,58.51
2023-05-23T13:29:47.211Z,57.89
2023-05-23T13:32:14.365Z,59.61
2023-05-23T13:34:42.825Z,58.39
2023-05-23T13:37:09.702Z,55.46
2023-05-23T13:39:36.909Z,52.98
2023-05-23T13:42:05.211Z,51.16
2023-05-23T13:44:37.703Z,51.82
2023-05-23T13:47:14.869Z,53.49
2023-05-23T13:49:45.467Z,52.65
2023-05-23T13:52:12.512Z,52.15
2023-05-23T13:54:39.499Z,54.28
2023-05-23T13:57:07.160Z,55.36
2023-05-23T13:59:34.449Z,57.39
2023-05-23T14:02:01.286Z,59.44
2023-05-23T14:04:28.867Z,64.40
2023-05-23T14:06:55.829Z,71.50
2023-05-23T14:09:23.627Z,73.67
2023-05-23T14:11:52.469Z,76.83
2023-05-23T14:14:19.493Z,76.89
2023-05-23T14:16:46.396Z,80.36
2023-05-23T14:19:13.544Z,86.71
2023-05-23T14:21:43.263Z,88.42
2023-05-23T14:24:11.582Z,91.54
2023-05-23T14:26:38.340Z,95.30
2023-05-23T14:29:05.451Z,99.29
2023-05-23T14:31:32.444Z,100.00
2023-05-23T14:33:59.379Z,95.27
2023-05-23T14:36:26.741Z,96.96
2023-05-23T14:38:53.755Z,99.84
2023-05-23T14:41:21.845Z,100.00
2023-05-23T14:43:48.948Z,100.00
2023-05-23T14:46:18.844Z,100.00
2023-05-23T14:48:46.496Z,97.90
2023-05-23T14:51:20.899Z,100.00
2023-05-23T14:54:00.589Z,100.00
2023-05-23T14:56:37.818Z,100.00
2023-05-23T14:59:08.216Z,100.00
2023-05-23T15:01:37.227Z,100.00
2023-05-23T15:04:08.179Z,100.00
2023-05-23T15:06:35.630Z,100.00
2023-05-23T15:09:03.254Z,100.00
2023-05-23T15:11:30.388Z,100.00
2023-05-23T15:13:58.367Z,100.00
2023-05-23T15:16:28.145Z,100.00
2023-05-23T15:18:57.820Z,100.00
2023-05-23T15:21:24.823Z,96.67
2023-05-23T15:23:52.124Z,98.29
2023-05-23T15:26:19.100Z,100.00
2023-05-23T15:28:52.735Z,100.00
2023-05-23T15:31:20.315Z,100.00
2023-05-23T15:33:48.129Z,100.00
2023-05-23T15:36:15.815Z,99.71
2023-05-23T15:38:44.152Z,97.88
2023-05-23T15:41:11.870Z,100.00
2023-05-23T15:43:39.014Z,100.00
2023-05-23T15:48:53.026Z,100.00
2023-05-23T15:51:20.333Z,100.00
2023-05-23T15:54:00.500Z,100.00
2023-05-23T15:56:29.222Z,100.00
2023-05-23T15:58:58.314Z,100.00
2023-05-23T16:01:25.622Z,100.00
2023-05-23T16:03:52.520Z,100.00
2023-05-23T16:06:19.464Z,100.00
2023-05-23T16:08:46.775Z,100.00
2023-05-23T16:11:13.835Z,100.00
2023-05-23T16:13:40.960Z,100.00
2023-05-23T16:16:07.865Z,100.00
2023-05-23T16:18:34.737Z,100.00
2023-05-23T16:21:02.076Z,100.00
2023-05-23T16:23:29.020Z,100.00
2023-05-23T16:25:55.953Z,100.00
2023-05-23T16:28:32.404Z,100.00
2023-05-23T16:31:02.120Z,100.00
2023-05-23T16:33:30.896Z,100.00
2023-05-23T16:35:57.789Z,100.00
2023-05-23T16:38:24.552Z,100.00
2023-05-23T16:40:51.993Z,100.00
2023-05-23T16:43:21.922Z,100.00
2023-05-23T16:45:49.064Z,100.00
2023-05-23T16:48:20.415Z,100.00
2023-05-23T16:50:47.259Z,100.00
2023-05-23T16:53:14.421Z,100.00
2023-05-23T16:55:44.436Z,100.00
2023-05-23T16:58:16.005Z,100.00
2023-05-23T17:00:44.159Z,100.00
2023-05-23T17:03:11.965Z,100.00
2023-05-23T17:05:43.024Z,100.00
2023-05-23T17:08:10.373Z,100.00
2023-05-23T17:10:38.580Z,100.00
2023-05-23T17:13:05.368Z,100.00
2023-05-23T17:15:34.671Z,100.00
2023-05-23T17:18:01.627Z,100.00
2023-05-23T17:20:28.935Z,100.00
2023-05-23T17:22:56.022Z,100.00
2023-05-23T17:25:23.671Z,100.00
2023-05-23T17:27:50.947Z,100.00
2023-05-23T17:30:23.943Z,100.00
2023-05-23T17:32:51.768Z,100.00
2023-05-23T17:35:18.964Z,100.00
2023-05-23T17:37:49.037Z,100.00
2023-05-23T17:40:15.998Z,100.00
2023-05-23T17:42:43.590Z,100.00
2023-05-23T17:45:11.368Z,100.00
2023-05-23T17:47:39.921Z,100.00
2023-05-23T17:50:08.202Z,100.00
2023-05-23T17:52:36.417Z,100.00
2023-05-23T17:55:04.142Z,100.00
2023-05-23T17:57:34.961Z,100.00
2023-05-23T18:00:07.097Z,100.00
2023-05-23T18:02:34.286Z,100.00
2023-05-23T18:05:07.725Z,100.00
2023-05-23T18:07:35.063Z,100.00
2023-05-23T18:10:06.266Z,100.00
2023-05-23T18:12:34.597Z,100.00
2023-05-23T18:15:02.612Z,100.00
2023-05-23T18:17:30.551Z,100.00
2023-05-23T18:19:57.976Z,100.00
2023-05-23T18:22:26.288Z,100.00
2023-05-23T18:24:54.326Z,100.00
2023-05-23T18:27:22.627Z,100.00
2023-05-23T18:29:49.969Z,100.00
2023-05-23T18:32:17.400Z,100.00
2023-05-23T18:34:44.902Z,100.00
2023-05-23T18:37:12.624Z,100.00
2023-05-23T18:39:43.846Z,100.00
2023-05-23T18:42:15.021Z,100.00
2023-05-23T18:44:42.901Z,100.00
2023-05-23T18:47:10.944Z,100.00
2023-05-23T18:49:41.927Z,100.00
2023-05-23T18:52:11.983Z,100.00
2023-05-23T18:54:39.191Z,100.00
2023-05-23T18:57:06.694Z,100.00
2023-05-23T18:59:34.041Z,100.00
2023-05-23T19:02:02.318Z,100.00
2023-05-23T19:04:30.487Z,100.00
2023-05-23T19:06:59.310Z,100.00
2023-05-23T19:09:27.378Z,100.00
2023-05-23T19:11:54.969Z,100.00
2023-05-23T19:14:26.392Z,100.00
2023-05-23T19:16:56.606Z,100.00
2023-05-23T19:19:24.061Z,100.00
2023-05-23T19:21:55.773Z,100.00
2023-05-23T19:24:23.985Z,100.00
2023-05-23T19:26:51.834Z,100.00
2023-05-23T19:29:19.003Z,100.00
2023-05-23T19:31:46.802Z,100.00
2023-05-23T19:34:14.284Z,100.00
2023-05-23T19:36:41.693Z,100.00
2023-05-23T19:39:12.803Z,100.00
2023-05-23T19:42:03.869Z,100.00
2023-05-23T19:44:32.359Z,100.00
2023-05-23T19:47:00.036Z,100.00
2023-05-23T19:49:27.446Z,100.00
2023-05-23T19:52:00.943Z,100.00
2023-05-23T19:54:31.310Z,100.00
2023-05-23T19:56:58.997Z,100.00
2023-05-23T19:59:26.541Z,100.00
2023-05-23T20:02:02.122Z,100.00
2023-05-23T20:04:30.482Z,100.00
2023-05-23T20:06:57.881Z,100.00
2023-05-23T20:09:25.209Z,100.00
2023-05-23T20:11:56.173Z,100.00
2023-05-23T20:14:23.168Z,100.00
2023-05-23T20:16:50.435Z,100.00
2023-05-23T20:19:18.036Z,100.00
2023-05-23T20:21:45.295Z,100.00
2023-05-23T20:24:15.139Z,100.00
2023-05-23T20:26:43.139Z,100.00
2023-05-23T20:29:10.965Z,100.00
2023-05-23T20:31:38.128Z,100.00
2023-05-23T20:34:08.380Z,100.00
2023-05-23T20:36:35.847Z,100.00
2023-05-23T20:39:02.769Z,100.00
2023-05-23T20:41:30.021Z,100.00
2023-05-23T20:44:00.218Z,100.00
2023-05-23T20:46:30.989Z,100.00
2023-05-23T20:48:58.709Z,100.00
2023-05-23T20:51:26.758Z,100.00
2023-05-23T20:53:53.869Z,100.00
2023-05-23T20:56:21.864Z,100.00
2023-05-23T20:58:51.857Z,100.00
2023-05-23T21:01:19.313Z,100.00
2023-05-23T21:03:49.706Z,100.00
2023-05-23T21:06:16.721Z,100.00
2023-05-23T21:08:43.802Z,100.00
2023-05-23T21:11:10.949Z,100.00
2023-05-23T21:13:39.966Z,100.00
2023-05-23T21:16:11.646Z,100.00
2023-05-23T21:18:46.489Z,100.00
2023-05-23T21:21:20.017Z,100.00
2023-05-23T21:23:47.516Z,100.00
2023-05-23T21:26:17.781Z,100.00
2023-05-23T21:28:47.498Z,100.00
2023-05-23T21:31:15.264Z,100.00
2023-05-23T21:33:42.732Z,100.00
2023-05-23T21:36:09.883Z,100.00
2023-05-23T21:38:37.969Z,100.00
2023-05-23T21:41:08.510Z,100.00
2023-05-23T21:43:36.071Z,100.00
2023-05-23T21:46:08.996Z,100.00
2023-05-23T21:48:36.741Z,100.00
2023-05-23T21:51:03.937Z,100.00
2023-05-23T21:53:31.829Z,100.00
2023-05-23T21:55:59.397Z,100.00
2023-05-23T21:58:26.655Z,100.00
2023-05-23T22:00:54.323Z,100.00
2023-05-23T22:03:22.000Z,100.00
2023-05-23T22:05:49.626Z,100.00
2023-05-23T22:08:17.046Z,100.00
2023-05-23T22:10:44.401Z,100.00
2023-05-23T22:13:12.330Z,100.00
2023-05-23T22:15:40.106Z,100.00
2023-05-23T22:18:08.132Z,100.00
2023-05-23T22:20:39.457Z,100.00
2023-05-23T22:23:07.983Z,100.00
2023-05-23T22:25:35.938Z,100.00
2023-05-23T22:28:03.296Z,100.00
2023-05-23T22:30:30.597Z,100.00
2023-05-23T22:32:58.370Z,100.00
2023-05-23T22:35:28.682Z,100.00
2023-05-23T22:37:56.486Z,100.00
2023-05-23T22:40:24.391Z,100.00
2023-05-23T22:42:51.398Z,100.00
2023-05-23T22:45:19.295Z,100.00
2023-05-23T22:47:48.996Z,100.00
2023-05-23T22:50:18.150Z,100.00
2023-05-23T22:52:46.031Z,100.00
2023-05-23T22:55:13.376Z,100.00
2023-05-23T22:57:40.247Z,100.00
2023-05-23T23:00:22.060Z,100.00
2023-05-23T23:05:39.347Z,100.00
2023-05-23T23:08:06.683Z,100.00
2023-05-23T23:10:33.577Z,100.00
2023-05-23T23:13:03.514Z,100.00
2023-05-23T23:15:30.651Z,100.00
2023-05-23T23:18:07.882Z,100.00
2023-05-23T23:20:35.076Z,100.00
2023-05-23T23:23:02.464Z,100.00
2023-05-23T23:25:30.975Z,100.00
2023-05-23T23:28:03.669Z,100.00
2023-05-23T23:30:38.168Z,100.00
2023-05-23T23:33:07.939Z,100.00
2023-05-23T23:35:41.383Z,100.00
2023-05-23T23:38:12.007Z,100.00
2023-05-23T23:40:39.438Z,100.00
2023-05-23T23:43:10.891Z,100.00
2023-05-23T23:45:38.891Z,100.00
2023-05-23T23:48:06.222Z,100.00
2023-05-23T23:50:33.446Z,100.00
2023-05-23T23:53:02.451Z,100.00
2023-05-23T23:55:30.454Z,100.00
2023-05-23T23:57:59.184Z,100.00
